sensor_id;sensor_type;location;lat;lon;timestamp;P1;durP1;ratioP1;P2;durP2;ratioP2
34924;SDS011;21130;51.728;8.748;2023-02-10T00:02:21;52.50;;;33.05;;
34924;SDS011;21130;51.728;8.748;2023-02-10T00:04:48;53.28;;;34.85;;
34924;SDS011;21130;51.728;8.748;2023-02-10T00:07:16;49.00;;;32.65;;
34924;SDS011;21130;51.728;8.748;2023-02-10T00:09:50;50.98;;;32.52;;
34924;SDS011;21130;51.728;8.748;2023-02-10T00:12:17;53.88;;;34.45;;
34924;SDS011;21130;51.728;8.748;2023-02-10T00:14:43;53.67;;;34.65;;
34924;SDS011;21130;51.728;8.748;2023-02-10T00:17:09;46.25;;;32.97;;
34924;SDS011;21130;51.728;8.748;2023-02-10T00:19:38;51.60;;;33.42;;
34924;SDS011;21130;51.728;8.748;2023-02-10T00:22:04;51.83;;;33.78;;
34924;SDS011;21130;51.728;8.748;2023-02-10T00:24:30;49.92;;;35.33;;
34924;SDS011;21130;51.728;8.748;2023-02-10T00:26:58;53.50;;;35.22;;
34924;SDS011;21130;51.728;8.748;2023-02-10T00:29:25;55.67;;;36.58;;
34924;SDS011;21130;51.728;8.748;2023-02-10T00:31:51;56.05;;;36.13;;
34924;SDS011;21130;51.728;8.748;2023-02-10T00:34:17;53.05;;;35.15;;
34924;SDS011;21130;51.728;8.748;2023-02-10T00:36:44;54.10;;;36.63;;
34924;SDS011;21130;51.728;8.748;2023-02-10T00:39:12;52.83;;;35.00;;
34924;SDS011;21130;51.728;8.748;2023-02-10T00:41:39;55.58;;;35.17;;
34924;SDS011;21130;51.728;8.748;2023-02-10T00:44:07;58.05;;;37.25;;
34924;SDS011;21130;51.728;8.748;2023-02-10T00:46:33;54.08;;;36.63;;
34924;SDS011;21130;51.728;8.748;2023-02-10T00:48:59;52.60;;;36.70;;
34924;SDS011;21130;51.728;8.748;2023-02-10T00:51:26;55.53;;;35.45;;
34924;SDS011;21130;51.728;8.748;2023-02-10T00:53:52;59.40;;;36.67;;
34924;SDS011;21130;51.728;8.748;2023-02-10T00:56:19;56.95;;;37.30;;
34924;SDS011;21130;51.728;8.748;2023-02-10T00:58:46;60.13;;;37.72;;
34924;SDS011;21130;51.728;8.748;2023-02-10T01:01:14;60.67;;;38.42;;
34924;SDS011;21130;51.728;8.748;2023-02-10T01:03:41;58.53;;;39.00;;
34924;SDS011;21130;51.728;8.748;2023-02-10T01:06:07;56.97;;;36.53;;
34924;SDS011;21130;51.728;8.748;2023-02-10T01:08:35;62.22;;;38.50;;
34924;SDS011;21130;51.728;8.748;2023-02-10T01:11:03;60.47;;;37.67;;
34924;SDS011;21130;51.728;8.748;2023-02-10T01:13:31;64.95;;;38.30;;
34924;SDS011;21130;51.728;8.748;2023-02-10T01:15:59;65.18;;;38.90;;
34924;SDS011;21130;51.728;8.748;2023-02-10T01:18:27;60.08;;;37.55;;
34924;SDS011;21130;51.728;8.748;2023-02-10T01:20:54;63.25;;;39.60;;
34924;SDS011;21130;51.728;8.748;2023-02-10T01:23:20;68.63;;;40.60;;
34924;SDS011;21130;51.728;8.748;2023-02-10T01:25:47;64.55;;;40.78;;
34924;SDS011;21130;51.728;8.748;2023-02-10T01:28:13;63.90;;;39.60;;
34924;SDS011;21130;51.728;8.748;2023-02-10T01:30:39;66.57;;;39.50;;
34924;SDS011;21130;51.728;8.748;2023-02-10T01:33:06;70.85;;;40.53;;
34924;SDS011;21130;51.728;8.748;2023-02-10T01:35:36;61.13;;;39.50;;
34924;SDS011;21130;51.728;8.748;2023-02-10T01:38:03;62.53;;;41.15;;
34924;SDS011;21130;51.728;8.748;2023-02-10T01:40:29;65.25;;;40.88;;
34924;SDS011;21130;51.728;8.748;2023-02-10T01:42:55;68.25;;;42.10;;
34924;SDS011;21130;51.728;8.748;2023-02-10T01:45:24;71.82;;;42.17;;
34924;SDS011;21130;51.728;8.748;2023-02-10T01:47:53;68.85;;;42.38;;
34924;SDS011;21130;51.728;8.748;2023-02-10T01:50:22;68.00;;;43.65;;
34924;SDS011;21130;51.728;8.748;2023-02-10T01:52:53;66.97;;;41.22;;
34924;SDS011;21130;51.728;8.748;2023-02-10T01:55:23;69.55;;;41.40;;
34924;SDS011;21130;51.728;8.748;2023-02-10T01:57:53;65.80;;;41.72;;
34924;SDS011;21130;51.728;8.748;2023-02-10T02:00:20;71.20;;;41.40;;
34924;SDS011;21130;51.728;8.748;2023-02-10T02:02:47;73.47;;;42.47;;
34924;SDS011;21130;51.728;8.748;2023-02-10T02:05:18;69.50;;;42.13;;
34924;SDS011;21130;51.728;8.748;2023-02-10T02:08:04;66.43;;;42.33;;
34924;SDS011;21130;51.728;8.748;2023-02-10T02:10:37;72.90;;;41.75;;
34924;SDS011;21130;51.728;8.748;2023-02-10T02:13:20;71.53;;;42.88;;
34924;SDS011;21130;51.728;8.748;2023-02-10T02:15:55;70.57;;;42.08;;
34924;SDS011;21130;51.728;8.748;2023-02-10T02:18:25;67.30;;;41.88;;
34924;SDS011;21130;51.728;8.748;2023-02-10T02:21:02;71.28;;;41.53;;
34924;SDS011;21130;51.728;8.748;2023-02-10T02:23:55;74.45;;;42.88;;
34924;SDS011;21130;51.728;8.748;2023-02-10T02:30:02;76.65;;;41.72;;
34924;SDS011;21130;51.728;8.748;2023-02-10T02:32:46;74.72;;;42.92;;
34924;SDS011;21130;51.728;8.748;2023-02-10T02:35:19;66.65;;;42.38;;
34924;SDS011;21130;51.728;8.748;2023-02-10T02:37:50;68.18;;;41.72;;
34924;SDS011;21130;51.728;8.748;2023-02-10T02:40:18;74.25;;;43.88;;
34924;SDS011;21130;51.728;8.748;2023-02-10T02:42:44;71.78;;;42.63;;
34924;SDS011;21130;51.728;8.748;2023-02-10T02:45:14;69.00;;;41.78;;
34924;SDS011;21130;51.728;8.748;2023-02-10T02:47:46;70.50;;;42.20;;
34924;SDS011;21130;51.728;8.748;2023-02-10T02:50:33;64.68;;;42.55;;
34924;SDS011;21130;51.728;8.748;2023-02-10T02:53:15;71.72;;;42.17;;
34924;SDS011;21130;51.728;8.748;2023-02-10T02:55:52;70.95;;;42.67;;
34924;SDS011;21130;51.728;8.748;2023-02-10T02:58:30;64.35;;;42.03;;
34924;SDS011;21130;51.728;8.748;2023-02-10T03:01:02;73.00;;;43.00;;
34924;SDS011;21130;51.728;8.748;2023-02-10T03:03:37;78.43;;;43.63;;
34924;SDS011;21130;51.728;8.748;2023-02-10T03:06:03;78.35;;;42.78;;
34924;SDS011;21130;51.728;8.748;2023-02-10T03:08:30;68.97;;;43.05;;
34924;SDS011;21130;51.728;8.748;2023-02-10T03:10:59;69.35;;;40.83;;
34924;SDS011;21130;51.728;8.748;2023-02-10T03:13:26;73.63;;;41.15;;
34924;SDS011;21130;51.728;8.748;2023-02-10T03:15:52;65.18;;;41.47;;
34924;SDS011;21130;51.728;8.748;2023-02-10T03:18:19;69.53;;;43.78;;
34924;SDS011;21130;51.728;8.748;2023-02-10T03:20:46;66.63;;;41.55;;
34924;SDS011;21130;51.728;8.748;2023-02-10T03:23:13;74.50;;;43.47;;
34924;SDS011;21130;51.728;8.748;2023-02-10T03:25:39;72.93;;;42.75;;
34924;SDS011;21130;51.728;8.748;2023-02-10T03:28:05;68.38;;;42.58;;
34924;SDS011;21130;51.728;8.748;2023-02-10T03:30:32;73.53;;;43.72;;
34924;SDS011;21130;51.728;8.748;2023-02-10T03:32:58;71.00;;;42.42;;
34924;SDS011;21130;51.728;8.748;2023-02-10T03:35:25;70.07;;;42.50;;
34924;SDS011;21130;51.728;8.748;2023-02-10T03:37:52;73.45;;;43.85;;
34924;SDS011;21130;51.728;8.748;2023-02-10T03:40:19;66.82;;;40.58;;
34924;SDS011;21130;51.728;8.748;2023-02-10T03:42:45;65.40;;;40.90;;
34924;SDS011;21130;51.728;8.748;2023-02-10T03:45:12;67.50;;;40.63;;
34924;SDS011;21130;51.728;8.748;2023-02-10T03:47:38;65.55;;;41.40;;
34924;SDS011;21130;51.728;8.748;2023-02-10T03:50:05;69.05;;;41.72;;
34924;SDS011;21130;51.728;8.748;2023-02-10T03:52:31;66.70;;;39.63;;
34924;SDS011;21130;51.728;8.748;2023-02-10T03:54:59;68.70;;;40.13;;
34924;SDS011;21130;51.728;8.748;2023-02-10T03:57:25;64.45;;;39.30;;
34924;SDS011;21130;51.728;8.748;2023-02-10T03:59:52;59.20;;;37.95;;
34924;SDS011;21130;51.728;8.748;2023-02-10T04:02:18;59.75;;;38.65;;
34924;SDS011;21130;51.728;8.748;2023-02-10T04:04:45;64.95;;;39.40;;
34924;SDS011;21130;51.728;8.748;2023-02-10T04:07:12;63.03;;;40.03;;
34924;SDS011;21130;51.728;8.748;2023-02-10T04:09:39;64.88;;;40.10;;
34924;SDS011;21130;51.728;8.748;2023-02-10T04:12:07;58.72;;;38.80;;
34924;SDS011;21130;51.728;8.748;2023-02-10T04:14:34;61.38;;;39.28;;
34924;SDS011;21130;51.728;8.748;2023-02-10T04:17:01;62.22;;;38.50;;
34924;SDS011;21130;51.728;8.748;2023-02-10T04:19:28;62.58;;;39.17;;
34924;SDS011;21130;51.728;8.748;2023-02-10T04:21:55;61.45;;;38.85;;
34924;SDS011;21130;51.728;8.748;2023-02-10T04:24:21;63.55;;;39.75;;
34924;SDS011;21130;51.728;8.748;2023-02-10T04:26:48;65.07;;;41.28;;
34924;SDS011;21130;51.728;8.748;2023-02-10T04:29:16;68.28;;;41.25;;
34924;SDS011;21130;51.728;8.748;2023-02-10T04:31:43;64.47;;;41.47;;
34924;SDS011;21130;51.728;8.748;2023-02-10T04:34:09;65.00;;;39.78;;
34924;SDS011;21130;51.728;8.748;2023-02-10T04:36:36;62.63;;;39.63;;
34924;SDS011;21130;51.728;8.748;2023-02-10T04:39:02;61.45;;;40.83;;
34924;SDS011;21130;51.728;8.748;2023-02-10T04:41:29;66.72;;;40.92;;
34924;SDS011;21130;51.728;8.748;2023-02-10T04:43:55;63.30;;;40.33;;
34924;SDS011;21130;51.728;8.748;2023-02-10T04:46:23;71.35;;;41.10;;
34924;SDS011;21130;51.728;8.748;2023-02-10T04:48:49;64.53;;;39.85;;
34924;SDS011;21130;51.728;8.748;2023-02-10T04:51:16;63.50;;;38.78;;
34924;SDS011;21130;51.728;8.748;2023-02-10T04:53:43;61.47;;;41.08;;
34924;SDS011;21130;51.728;8.748;2023-02-10T04:56:09;64.55;;;40.33;;
34924;SDS011;21130;51.728;8.748;2023-02-10T04:58:36;66.70;;;40.35;;
34924;SDS011;21130;51.728;8.748;2023-02-10T05:01:03;67.25;;;41.15;;
34924;SDS011;21130;51.728;8.748;2023-02-10T05:03:31;70.55;;;42.20;;
34924;SDS011;21130;51.728;8.748;2023-02-10T05:05:57;71.90;;;41.55;;
34924;SDS011;21130;51.728;8.748;2023-02-10T05:08:24;69.47;;;42.55;;
34924;SDS011;21130;51.728;8.748;2023-02-10T05:10:51;66.78;;;40.72;;
34924;SDS011;21130;51.728;8.748;2023-02-10T05:13:20;67.63;;;42.92;;
34924;SDS011;21130;51.728;8.748;2023-02-10T05:15:46;64.75;;;41.80;;
34924;SDS011;21130;51.728;8.748;2023-02-10T05:18:13;68.22;;;40.60;;
34924;SDS011;21130;51.728;8.748;2023-02-10T05:20:41;63.45;;;42.08;;
34924;SDS011;21130;51.728;8.748;2023-02-10T05:23:07;67.72;;;41.45;;
34924;SDS011;21130;51.728;8.748;2023-02-10T05:25:34;73.60;;;42.15;;
34924;SDS011;21130;51.728;8.748;2023-02-10T05:28:03;67.65;;;41.10;;
34924;SDS011;21130;51.728;8.748;2023-02-10T05:30:32;70.25;;;43.13;;
34924;SDS011;21130;51.728;8.748;2023-02-10T05:32:58;68.97;;;42.97;;
34924;SDS011;21130;51.728;8.748;2023-02-10T05:35:25;70.82;;;43.95;;
34924;SDS011;21130;51.728;8.748;2023-02-10T05:37:52;66.40;;;41.53;;
34924;SDS011;21130;51.728;8.748;2023-02-10T05:40:19;72.22;;;42.83;;
34924;SDS011;21130;51.728;8.748;2023-02-10T05:42:45;68.38;;;41.78;;
34924;SDS011;21130;51.728;8.748;2023-02-10T05:45:12;75.15;;;43.08;;
34924;SDS011;21130;51.728;8.748;2023-02-10T05:47:38;72.05;;;43.88;;
34924;SDS011;21130;51.728;8.748;2023-02-10T05:50:05;78.38;;;44.22;;
34924;SDS011;21130;51.728;8.748;2023-02-10T05:52:32;74.20;;;43.63;;
34924;SDS011;21130;51.728;8.748;2023-02-10T05:55:00;78.22;;;44.90;;
34924;SDS011;21130;51.728;8.748;2023-02-10T05:57:27;73.30;;;44.63;;
34924;SDS011;21130;51.728;8.748;2023-02-10T05:59:53;70.82;;;43.20;;
34924;SDS011;21130;51.728;8.748;2023-02-10T06:02:20;79.18;;;44.53;;
34924;SDS011;21130;51.728;8.748;2023-02-10T06:04:46;75.40;;;43.63;;
34924;SDS011;21130;51.728;8.748;2023-02-10T06:07:13;75.50;;;44.67;;
34924;SDS011;21130;51.728;8.748;2023-02-10T06:09:39;74.05;;;43.63;;
34924;SDS011;21130;51.728;8.748;2023-02-10T06:12:11;74.78;;;44.05;;
34924;SDS011;21130;51.728;8.748;2023-02-10T06:14:38;81.53;;;46.63;;
34924;SDS011;21130;51.728;8.748;2023-02-10T06:17:07;85.13;;;45.92;;
34924;SDS011;21130;51.728;8.748;2023-02-10T06:19:34;81.68;;;46.30;;
34924;SDS011;21130;51.728;8.748;2023-02-10T06:22:01;82.35;;;45.05;;
34924;SDS011;21130;51.728;8.748;2023-02-10T06:24:27;80.05;;;46.90;;
34924;SDS011;21130;51.728;8.748;2023-02-10T06:26:54;82.30;;;45.40;;
34924;SDS011;21130;51.728;8.748;2023-02-10T06:29:22;82.35;;;44.60;;
34924;SDS011;21130;51.728;8.748;2023-02-10T06:31:48;87.97;;;45.85;;
34924;SDS011;21130;51.728;8.748;2023-02-10T06:34:15;81.22;;;45.63;;
34924;SDS011;21130;51.728;8.748;2023-02-10T06:36:41;82.68;;;44.60;;
34924;SDS011;21130;51.728;8.748;2023-02-10T06:39:08;75.03;;;43.88;;
34924;SDS011;21130;51.728;8.748;2023-02-10T06:41:34;77.68;;;44.90;;
34924;SDS011;21130;51.728;8.748;2023-02-10T06:44:01;81.95;;;46.47;;
34924;SDS011;21130;51.728;8.748;2023-02-10T06:46:28;77.82;;;44.45;;
34924;SDS011;21130;51.728;8.748;2023-02-10T06:48:55;74.80;;;43.60;;
34924;SDS011;21130;51.728;8.748;2023-02-10T06:51:24;75.38;;;42.55;;
34924;SDS011;21130;51.728;8.748;2023-02-10T06:53:50;71.05;;;42.10;;
34924;SDS011;21130;51.728;8.748;2023-02-10T06:56:17;72.60;;;42.38;;
34924;SDS011;21130;51.728;8.748;2023-02-10T06:58:43;77.43;;;42.40;;
34924;SDS011;21130;51.728;8.748;2023-02-10T07:01:11;77.60;;;41.17;;
34924;SDS011;21130;51.728;8.748;2023-02-10T07:03:43;76.85;;;41.75;;
34924;SDS011;21130;51.728;8.748;2023-02-10T07:06:09;68.93;;;41.22;;
34924;SDS011;21130;51.728;8.748;2023-02-10T07:08:36;75.80;;;40.80;;
34924;SDS011;21130;51.728;8.748;2023-02-10T07:11:02;66.72;;;39.67;;
34924;SDS011;21130;51.728;8.748;2023-02-10T07:13:29;70.47;;;40.35;;
34924;SDS011;21130;51.728;8.748;2023-02-10T07:15:56;70.53;;;39.22;;
34924;SDS011;21130;51.728;8.748;2023-02-10T07:18:22;69.55;;;39.55;;
34924;SDS011;21130;51.728;8.748;2023-02-10T07:20:51;65.82;;;38.50;;
34924;SDS011;21130;51.728;8.748;2023-02-10T07:23:18;70.35;;;39.47;;
34924;SDS011;21130;51.728;8.748;2023-02-10T07:25:45;63.42;;;38.45;;
34924;SDS011;21130;51.728;8.748;2023-02-10T07:28:11;63.65;;;37.70;;
34924;SDS011;21130;51.728;8.748;2023-02-10T07:30:37;67.43;;;38.85;;
34924;SDS011;21130;51.728;8.748;2023-02-10T07:33:04;65.38;;;37.72;;
34924;SDS011;21130;51.728;8.748;2023-02-10T07:35:31;64.18;;;37.55;;
34924;SDS011;21130;51.728;8.748;2023-02-10T07:37:58;62.47;;;37.22;;
34924;SDS011;21130;51.728;8.748;2023-02-10T07:40:25;59.67;;;37.17;;
34924;SDS011;21130;51.728;8.748;2023-02-10T07:42:53;62.45;;;37.80;;
34924;SDS011;21130;51.728;8.748;2023-02-10T07:45:20;62.33;;;38.22;;
34924;SDS011;21130;51.728;8.748;2023-02-10T07:47:46;62.35;;;38.08;;
34924;SDS011;21130;51.728;8.748;2023-02-10T07:50:13;65.55;;;37.45;;
34924;SDS011;21130;51.728;8.748;2023-02-10T07:52:40;62.67;;;38.90;;
34924;SDS011;21130;51.728;8.748;2023-02-10T07:55:10;68.32;;;38.85;;
34924;SDS011;21130;51.728;8.748;2023-02-10T07:57:36;61.20;;;37.85;;
34924;SDS011;21130;51.728;8.748;2023-02-10T08:00:04;60.42;;;38.90;;
34924;SDS011;21130;51.728;8.748;2023-02-10T08:02:31;60.10;;;37.30;;
34924;SDS011;21130;51.728;8.748;2023-02-10T08:04:57;66.15;;;37.72;;
34924;SDS011;21130;51.728;8.748;2023-02-10T08:07:24;60.97;;;37.47;;
34924;SDS011;21130;51.728;8.748;2023-02-10T08:09:50;61.88;;;36.88;;
34924;SDS011;21130;51.728;8.748;2023-02-10T08:12:18;60.97;;;37.47;;
34924;SDS011;21130;51.728;8.748;2023-02-10T08:14:45;56.03;;;35.58;;
34924;SDS011;21130;51.728;8.748;2023-02-10T08:17:12;57.60;;;36.47;;
34924;SDS011;21130;51.728;8.748;2023-02-10T08:19:40;59.70;;;36.63;;
34924;SDS011;21130;51.728;8.748;2023-02-10T08:22:06;61.67;;;37.22;;
34924;SDS011;21130;51.728;8.748;2023-02-10T08:24:33;60.33;;;36.88;;
34924;SDS011;21130;51.728;8.748;2023-02-10T08:27:00;56.72;;;36.22;;
34924;SDS011;21130;51.728;8.748;2023-02-10T08:29:28;56.00;;;34.85;;
34924;SDS011;21130;51.728;8.748;2023-02-10T08:31:54;51.55;;;34.10;;
34924;SDS011;21130;51.728;8.748;2023-02-10T08:34:21;56.30;;;34.30;;
34924;SDS011;21130;51.728;8.748;2023-02-10T08:36:47;51.10;;;33.90;;
34924;SDS011;21130;51.728;8.748;2023-02-10T08:39:14;55.33;;;33.60;;
34924;SDS011;21130;51.728;8.748;2023-02-10T08:41:41;51.50;;;32.80;;
34924;SDS011;21130;51.728;8.748;2023-02-10T08:44:07;52.83;;;33.35;;
34924;SDS011;21130;51.728;8.748;2023-02-10T08:46:38;52.00;;;33.53;;
34924;SDS011;21130;51.728;8.748;2023-02-10T08:49:05;49.15;;;31.50;;
34924;SDS011;21130;51.728;8.748;2023-02-10T08:51:31;51.08;;;33.38;;
34924;SDS011;21130;51.728;8.748;2023-02-10T08:53:59;51.45;;;33.05;;
34924;SDS011;21130;51.728;8.748;2023-02-10T08:56:26;51.15;;;29.95;;
34924;SDS011;21130;51.728;8.748;2023-02-10T08:58:52;57.47;;;33.20;;
34924;SDS011;21130;51.728;8.748;2023-02-10T09:01:20;51.13;;;32.47;;
34924;SDS011;21130;51.728;8.748;2023-02-10T09:03:49;52.95;;;31.58;;
34924;SDS011;21130;51.728;8.748;2023-02-10T09:06:16;51.40;;;31.65;;
34924;SDS011;21130;51.728;8.748;2023-02-10T09:08:45;52.88;;;32.28;;
34924;SDS011;21130;51.728;8.748;2023-02-10T09:11:12;57.15;;;34.33;;
34924;SDS011;21130;51.728;8.748;2023-02-10T09:13:39;51.95;;;31.90;;
34924;SDS011;21130;51.728;8.748;2023-02-10T09:16:07;48.70;;;31.70;;
34924;SDS011;21130;51.728;8.748;2023-02-10T09:18:34;47.65;;;31.98;;
34924;SDS011;21130;51.728;8.748;2023-02-10T09:21:02;47.53;;;30.33;;
34924;SDS011;21130;51.728;8.748;2023-02-10T09:23:29;45.65;;;30.08;;
34924;SDS011;21130;51.728;8.748;2023-02-10T09:25:56;53.25;;;31.48;;
34924;SDS011;21130;51.728;8.748;2023-02-10T09:28:24;49.85;;;30.45;;
34924;SDS011;21130;51.728;8.748;2023-02-10T09:30:51;43.15;;;28.20;;
34924;SDS011;21130;51.728;8.748;2023-02-10T09:33:17;43.50;;;29.58;;
34924;SDS011;21130;51.728;8.748;2023-02-10T09:35:44;45.70;;;29.85;;
34924;SDS011;21130;51.728;8.748;2023-02-10T09:38:12;45.25;;;29.55;;
34924;SDS011;21130;51.728;8.748;2023-02-10T09:40:44;45.78;;;28.25;;
34924;SDS011;21130;51.728;8.748;2023-02-10T09:43:18;42.72;;;27.67;;
34924;SDS011;21130;51.728;8.748;2023-02-10T09:45:55;42.45;;;28.00;;
34924;SDS011;21130;51.728;8.748;2023-02-10T09:48:28;44.20;;;28.48;;
34924;SDS011;21130;51.728;8.748;2023-02-10T09:51:03;44.25;;;28.38;;
34924;SDS011;21130;51.728;8.748;2023-02-10T09:53:38;43.50;;;26.98;;
34924;SDS011;21130;51.728;8.748;2023-02-10T09:56:17;39.97;;;26.20;;
34924;SDS011;21130;51.728;8.748;2023-02-10T09:58:48;42.60;;;26.67;;
34924;SDS011;21130;51.728;8.748;2023-02-10T10:01:17;42.70;;;26.50;;
34924;SDS011;21130;51.728;8.748;2023-02-10T10:03:47;42.72;;;27.80;;
34924;SDS011;21130;51.728;8.748;2023-02-10T10:06:18;40.33;;;25.55;;
34924;SDS011;21130;51.728;8.748;2023-02-10T10:08:53;41.13;;;26.90;;
34924;SDS011;21130;51.728;8.748;2023-02-10T10:11:27;38.95;;;25.20;;
34924;SDS011;21130;51.728;8.748;2023-02-10T10:13:59;36.95;;;25.63;;
34924;SDS011;21130;51.728;8.748;2023-02-10T10:16:36;37.78;;;23.13;;
34924;SDS011;21130;51.728;8.748;2023-02-10T10:19:13;38.90;;;23.70;;
34924;SDS011;21130;51.728;8.748;2023-02-10T10:21:50;36.17;;;22.33;;
34924;SDS011;21130;51.728;8.748;2023-02-10T10:24:28;34.17;;;23.67;;
34924;SDS011;21130;51.728;8.748;2023-02-10T10:27:10;31.95;;;21.27;;
34924;SDS011;21130;51.728;8.748;2023-02-10T10:29:48;32.17;;;21.15;;
34924;SDS011;21130;51.728;8.748;2023-02-10T10:32:22;33.38;;;21.67;;
34924;SDS011;21130;51.728;8.748;2023-02-10T10:34:57;36.58;;;22.42;;
34924;SDS011;21130;51.728;8.748;2023-02-10T10:37:25;32.30;;;21.90;;
34924;SDS011;21130;51.728;8.748;2023-02-10T10:39:55;32.50;;;22.75;;
34924;SDS011;21130;51.728;8.748;2023-02-10T10:42:26;30.77;;;21.75;;
34924;SDS011;21130;51.728;8.748;2023-02-10T10:45:02;33.97;;;22.05;;
34924;SDS011;21130;51.728;8.748;2023-02-10T10:47:36;30.13;;;21.50;;
34924;SDS011;21130;51.728;8.748;2023-02-10T10:50:10;31.75;;;21.30;;
34924;SDS011;21130;51.728;8.748;2023-02-10T10:52:41;28.25;;;20.30;;
34924;SDS011;21130;51.728;8.748;2023-02-10T10:55:12;34.38;;;21.90;;
34924;SDS011;21130;51.728;8.748;2023-02-10T10:57:40;32.35;;;21.40;;
34924;SDS011;21130;51.728;8.748;2023-02-10T11:00:13;33.42;;;20.77;;
34924;SDS011;21130;51.728;8.748;2023-02-10T11:02:52;35.08;;;21.83;;
34924;SDS011;21130;51.728;8.748;2023-02-10T11:05:19;33.38;;;21.10;;
34924;SDS011;21130;51.728;8.748;2023-02-10T11:07:47;32.53;;;22.63;;
34924;SDS011;21130;51.728;8.748;2023-02-10T11:10:21;35.00;;;21.65;;
34924;SDS011;21130;51.728;8.748;2023-02-10T11:12:49;33.92;;;22.48;;
34924;SDS011;21130;51.728;8.748;2023-02-10T11:18:04;35.78;;;22.30;;
34924;SDS011;21130;51.728;8.748;2023-02-10T11:20:34;32.10;;;21.90;;
34924;SDS011;21130;51.728;8.748;2023-02-10T11:23:02;34.85;;;22.10;;
34924;SDS011;21130;51.728;8.748;2023-02-10T11:25:33;33.55;;;22.63;;
34924;SDS011;21130;51.728;8.748;2023-02-10T11:28:02;32.20;;;22.02;;
34924;SDS011;21130;51.728;8.748;2023-02-10T11:30:31;33.08;;;22.80;;
34924;SDS011;21130;51.728;8.748;2023-02-10T11:32:59;31.58;;;22.65;;
34924;SDS011;21130;51.728;8.748;2023-02-10T11:35:27;37.05;;;22.98;;
34924;SDS011;21130;51.728;8.748;2023-02-10T11:37:55;34.30;;;22.25;;
34924;SDS011;21130;51.728;8.748;2023-02-10T11:40:26;36.63;;;22.23;;
34924;SDS011;21130;51.728;8.748;2023-02-10T11:42:57;33.00;;;22.75;;
34924;SDS011;21130;51.728;8.748;2023-02-10T11:45:26;32.97;;;22.30;;
34924;SDS011;21130;51.728;8.748;2023-02-10T11:48:00;35.03;;;21.63;;
34924;SDS011;21130;51.728;8.748;2023-02-10T11:50:29;30.75;;;20.33;;
34924;SDS011;21130;51.728;8.748;2023-02-10T11:52:57;33.08;;;20.77;;
34924;SDS011;21130;51.728;8.748;2023-02-10T11:55:25;33.15;;;21.15;;
34924;SDS011;21130;51.728;8.748;2023-02-10T11:58:00;29.17;;;19.92;;
34924;SDS011;21130;51.728;8.748;2023-02-10T12:01:13;28.75;;;18.60;;
34924;SDS011;21130;51.728;8.748;2023-02-10T12:03:52;26.30;;;17.40;;
34924;SDS011;21130;51.728;8.748;2023-02-10T12:06:28;28.35;;;18.45;;
34924;SDS011;21130;51.728;8.748;2023-02-10T12:09:00;28.73;;;18.55;;
34924;SDS011;21130;51.728;8.748;2023-02-10T12:11:36;31.88;;;19.35;;
34924;SDS011;21130;51.728;8.748;2023-02-10T12:17:15;25.15;;;16.70;;
34924;SDS011;21130;51.728;8.748;2023-02-10T12:19:53;25.00;;;17.40;;
34924;SDS011;21130;51.728;8.748;2023-02-10T12:22:35;31.30;;;18.38;;
34924;SDS011;21130;51.728;8.748;2023-02-10T12:25:11;28.92;;;17.67;;
34924;SDS011;21130;51.728;8.748;2023-02-10T12:27:51;26.15;;;16.42;;
34924;SDS011;21130;51.728;8.748;2023-02-10T12:30:30;26.33;;;16.52;;
34924;SDS011;21130;51.728;8.748;2023-02-10T12:33:09;25.98;;;16.52;;
34924;SDS011;21130;51.728;8.748;2023-02-10T12:35:54;22.27;;;15.35;;
34924;SDS011;21130;51.728;8.748;2023-02-10T12:38:33;24.77;;;16.38;;
34924;SDS011;21130;51.728;8.748;2023-02-10T12:41:14;27.63;;;17.00;;
34924;SDS011;21130;51.728;8.748;2023-02-10T12:43:52;25.90;;;16.40;;
34924;SDS011;21130;51.728;8.748;2023-02-10T12:46:28;23.95;;;17.02;;
34924;SDS011;21130;51.728;8.748;2023-02-10T12:49:05;23.42;;;16.30;;
34924;SDS011;21130;51.728;8.748;2023-02-10T12:51:45;24.90;;;15.18;;
34924;SDS011;21130;51.728;8.748;2023-02-10T12:54:22;25.77;;;15.35;;
34924;SDS011;21130;51.728;8.748;2023-02-10T12:56:54;27.20;;;15.05;;
34924;SDS011;21130;51.728;8.748;2023-02-10T12:59:24;26.10;;;15.85;;
34924;SDS011;21130;51.728;8.748;2023-02-10T13:01:57;26.35;;;16.13;;
34924;SDS011;21130;51.728;8.748;2023-02-10T13:04:27;22.88;;;15.18;;
34924;SDS011;21130;51.728;8.748;2023-02-10T13:06:57;24.65;;;15.18;;
34924;SDS011;21130;51.728;8.748;2023-02-10T13:09:28;22.33;;;14.32;;
34924;SDS011;21130;51.728;8.748;2023-02-10T13:12:11;19.48;;;13.27;;
34924;SDS011;21130;51.728;8.748;2023-02-10T13:14:41;21.60;;;13.45;;
34924;SDS011;21130;51.728;8.748;2023-02-10T13:17:12;20.02;;;12.25;;
34924;SDS011;21130;51.728;8.748;2023-02-10T13:19:39;18.73;;;11.88;;
34924;SDS011;21130;51.728;8.748;2023-02-10T13:22:16;17.10;;;12.30;;
34924;SDS011;21130;51.728;8.748;2023-02-10T13:24:48;20.33;;;13.40;;
34924;SDS011;21130;51.728;8.748;2023-02-10T13:27:25;19.65;;;11.68;;
34924;SDS011;21130;51.728;8.748;2023-02-10T13:30:06;17.73;;;11.80;;
34924;SDS011;21130;51.728;8.748;2023-02-10T13:32:49;16.13;;;10.98;;
34924;SDS011;21130;51.728;8.748;2023-02-10T13:35:23;18.27;;;11.23;;
34924;SDS011;21130;51.728;8.748;2023-02-10T13:37:51;17.40;;;11.88;;
34924;SDS011;21130;51.728;8.748;2023-02-10T13:40:21;17.40;;;11.50;;
34924;SDS011;21130;51.728;8.748;2023-02-10T13:42:51;16.13;;;11.13;;
34924;SDS011;21130;51.728;8.748;2023-02-10T13:45:21;16.38;;;11.13;;
34924;SDS011;21130;51.728;8.748;2023-02-10T13:47:52;23.52;;;14.23;;
34924;SDS011;21130;51.728;8.748;2023-02-10T13:50:26;18.58;;;12.88;;
34924;SDS011;21130;51.728;8.748;2023-02-10T13:52:55;19.15;;;11.85;;
34924;SDS011;21130;51.728;8.748;2023-02-10T13:55:26;17.83;;;11.85;;
34924;SDS011;21130;51.728;8.748;2023-02-10T13:58:17;17.48;;;11.80;;
34924;SDS011;21130;51.728;8.748;2023-02-10T14:04:00;21.75;;;12.98;;
34924;SDS011;21130;51.728;8.748;2023-02-10T14:06:32;18.42;;;12.18;;
34924;SDS011;21130;51.728;8.748;2023-02-10T14:09:01;18.92;;;12.55;;
34924;SDS011;21130;51.728;8.748;2023-02-10T14:11:30;19.77;;;12.57;;
34924;SDS011;21130;51.728;8.748;2023-02-10T14:14:16;19.33;;;12.77;;
34924;SDS011;21130;51.728;8.748;2023-02-10T14:16:45;23.50;;;14.18;;
34924;SDS011;21130;51.728;8.748;2023-02-10T14:19:21;19.00;;;12.85;;
34924;SDS011;21130;51.728;8.748;2023-02-10T14:21:50;20.95;;;14.05;;
34924;SDS011;21130;51.728;8.748;2023-02-10T14:24:22;18.92;;;13.88;;
34924;SDS011;21130;51.728;8.748;2023-02-10T14:26:51;21.90;;;14.88;;
34924;SDS011;21130;51.728;8.748;2023-02-10T14:29:20;19.52;;;14.30;;
34924;SDS011;21130;51.728;8.748;2023-02-10T14:31:49;21.88;;;15.13;;
34924;SDS011;21130;51.728;8.748;2023-02-10T14:34:20;21.92;;;15.23;;
34924;SDS011;21130;51.728;8.748;2023-02-10T14:36:50;25.00;;;15.82;;
34924;SDS011;21130;51.728;8.748;2023-02-10T14:39:19;21.23;;;15.13;;
34924;SDS011;21130;51.728;8.748;2023-02-10T14:41:46;20.17;;;15.23;;
34924;SDS011;21130;51.728;8.748;2023-02-10T14:44:17;24.73;;;15.68;;
34924;SDS011;21130;51.728;8.748;2023-02-10T14:46:51;22.42;;;15.40;;
34924;SDS011;21130;51.728;8.748;2023-02-10T14:49:19;23.83;;;15.23;;